Time;durP1;ratioP1;P1;durP2;ratioP2;P2;SDS_P1;SDS_P2;PMS_P1;PMS_P2;Temp;Humidity;BMP_temperature;BMP_pressure;BME280_temperature;BME280_humidity;BME280_pressure;Samples;Min_cycle;Max_cycle;Signal;HPM_P1;HPM_P2
2023/12/21 00:02:12;;;;;;;0.83;0.80;;;;;;;;;;6287315;22;20356;-89
2023/12/21 00:04:38;;;;;;;1.47;0.90;;;;;;;;;;6312658;22;20372;-90
2023/12/21 00:07:04;;;;;;;1.40;1.30;;;;;;;;;;6287505;22;20444;-90
2023/12/21 00:09:30;;;;;;;0.80;0.80;;;;;;;;;;6284796;22;20368;-89
2023/12/21 00:11:56;;;;;;;1.53;1.00;;;;;;;;;;6287339;22;20403;-88
2023/12/21 00:14:23;;;;;;;0.90;0.77;;;;;;;;;;6309274;22;20417;-89
2023/12/21 00:16:49;;;;;;;1.20;1.10;;;;;;;;;;6310717;22;20376;-90
2023/12/21 00:19:15;;;;;;;0.80;0.60;;;;;;;;;;6285646;22;20419;-90
2023/12/21 00:21:41;;;;;;;1.37;1.27;;;;;;;;;;6284975;22;20398;-90
2023/12/21 00:24:07;;;;;;;1.10;1.07;;;;;;;;;;6286536;22;20376;-90
2023/12/21 00:26:33;;;;;;;0.60;0.50;;;;;;;;;;6285168;22;20400;-90
2023/12/21 00:28:59;;;;;;;1.77;0.80;;;;;;;;;;6289133;22;20396;-89
2023/12/21 00:31:25;;;;;;;0.97;0.73;;;;;;;;;;6311469;22;20367;-90
2023/12/21 00:33:51;;;;;;;0.80;0.77;;;;;;;;;;6287390;22;20364;-90
2023/12/21 00:36:17;;;;;;;0.80;0.70;;;;;;;;;;6312639;22;20463;-90
2023/12/21 00:38:43;;;;;;;1.10;0.90;;;;;;;;;;6311183;22;20412;-90
2023/12/21 00:41:09;;;;;;;0.67;0.63;;;;;;;;;;6285889;22;20786;-90
2023/12/21 00:43:35;;;;;;;0.70;0.63;;;;;;;;;;6288377;22;20380;-88
2023/12/21 00:46:01;;;;;;;1.13;0.90;;;;;;;;;;6314452;22;20891;-90
2023/12/21 00:48:27;;;;;;;0.90;0.70;;;;;;;;;;6310195;22;20379;-90
2023/12/21 00:50:53;;;;;;;0.80;0.77;;;;;;;;;;6312574;22;20360;-90
2023/12/21 00:53:19;;;;;;;0.80;0.70;;;;;;;;;;6310438;22;20709;-90
2023/12/21 00:55:45;;;;;;;3.17;1.10;;;;;;;;;;6285810;22;20372;-90
2023/12/21 00:58:12;;;;;;;0.87;0.80;;;;;;;;;;6284129;22;20376;-89
2023/12/21 01:00:37;;;;;;;1.17;0.60;;;;;;;;;;6287921;22;20403;-90
2023/12/21 01:03:04;;;;;;;0.90;0.90;;;;;;;;;;6285807;22;20373;-90
2023/12/21 01:05:30;;;;;;;0.83;0.80;;;;;;;;;;6285672;22;20368;-90
2023/12/21 01:07:56;;;;;;;0.73;0.67;;;;;;;;;;6286531;22;20433;-89
2023/12/21 01:10:22;;;;;;;0.70;0.67;;;;;;;;;;6286837;22;20774;-90
2023/12/21 01:12:47;;;;;;;0.80;0.80;;;;;;;;;;6288972;22;20740;-90
2023/12/21 01:15:16;;;;;;;0.80;0.60;;;;;;;;;;6286626;22;20442;-90
2023/12/21 01:17:42;;;;;;;0.60;0.57;;;;;;;;;;6289526;22;20468;-90
2023/12/21 01:20:09;;;;;;;0.97;0.77;;;;;;;;;;6284149;22;20419;-91
2023/12/21 01:22:35;;;;;;;0.80;0.80;;;;;;;;;;6286816;22;20872;-90
2023/12/21 01:25:01;;;;;;;0.90;0.90;;;;;;;;;;6285663;22;20429;-90
2023/12/21 01:27:28;;;;;;;0.80;0.77;;;;;;;;;;6287334;22;20372;-90
2023/12/21 01:29:54;;;;;;;0.70;0.60;;;;;;;;;;6285323;22;20404;-91
2023/12/21 01:32:20;;;;;;;2.20;0.80;;;;;;;;;;6285921;22;20389;-89
2023/12/21 01:34:46;;;;;;;0.60;0.60;;;;;;;;;;6285583;22;20376;-89
2023/12/21 01:37:12;;;;;;;1.67;0.90;;;;;;;;;;6290854;22;20765;-89
2023/12/21 01:39:38;;;;;;;0.80;0.80;;;;;;;;;;6281896;22;20420;-90
2023/12/21 01:42:05;;;;;;;0.97;0.77;;;;;;;;;;6286776;22;20382;-90
2023/12/21 01:44:31;;;;;;;0.70;0.67;;;;;;;;;;6282949;22;20381;-91
2023/12/21 01:46:57;;;;;;;1.00;0.70;;;;;;;;;;6287538;22;20389;-91
2023/12/21 01:49:23;;;;;;;2.97;1.27;;;;;;;;;;6284360;22;20473;-90
2023/12/21 01:51:49;;;;;;;0.80;0.70;;;;;;;;;;6284505;22;20430;-89
2023/12/21 01:54:15;;;;;;;0.70;0.60;;;;;;;;;;6284643;22;20380;-88
2023/12/21 01:56:51;;;;;;;0.80;0.73;;;;;;;;;;6287508;22;20403;-90
2023/12/21 01:59:17;;;;;;;0.70;0.60;;;;;;;;;;6285504;22;20498;-87
2023/12/21 02:01:43;;;;;;;0.60;0.60;;;;;;;;;;6310499;22;20436;-89
2023/12/21 02:04:14;;;;;;;1.97;0.60;;;;;;;;;;6286421;22;20396;-89
2023/12/21 02:06:41;;;;;;;0.70;0.60;;;;;;;;;;6291093;22;20380;-90
2023/12/21 02:09:07;;;;;;;0.70;0.70;;;;;;;;;;6286498;22;20383;-89
2023/12/21 02:11:33;;;;;;;0.60;0.60;;;;;;;;;;6283776;22;20415;-91
2023/12/21 02:14:00;;;;;;;0.97;0.50;;;;;;;;;;6282922;22;20372;-91
2023/12/21 02:16:32;;;;;;;0.80;0.80;;;;;;;;;;6281235;22;20432;-90
2023/12/21 02:18:58;;;;;;;0.60;0.50;;;;;;;;;;6283368;22;20930;-90
2023/12/21 02:21:24;;;;;;;0.77;0.77;;;;;;;;;;6281286;22;20384;-91
2023/12/21 02:23:50;;;;;;;0.60;0.50;;;;;;;;;;6281609;22;20549;-91
2023/12/21 02:26:18;;;;;;;0.70;0.60;;;;;;;;;;6282815;22;20372;-89
2023/12/21 02:28:44;;;;;;;0.73;0.73;;;;;;;;;;6283209;22;20419;-90
2023/12/21 02:31:10;;;;;;;0.60;0.60;;;;;;;;;;6283945;22;21093;-90
2023/12/21 02:33:36;;;;;;;0.60;0.60;;;;;;;;;;6283362;22;20463;-90
2023/12/21 02:36:03;;;;;;;1.23;0.60;;;;;;;;;;6282775;22;20404;-90
2023/12/21 02:38:29;;;;;;;2.93;0.70;;;;;;;;;;6288284;22;20469;-91
2023/12/21 02:40:55;;;;;;;0.70;0.60;;;;;;;;;;6281382;22;20538;-90
2023/12/21 02:43:20;;;;;;;0.77;0.70;;;;;;;;;;6279976;22;20384;-90
2023/12/21 02:45:46;;;;;;;24.07;2.10;;;;;;;;;;6280750;22;20414;-90
2023/12/21 02:48:12;;;;;;;0.70;0.60;;;;;;;;;;6281898;22;20685;-90
2023/12/21 02:50:38;;;;;;;0.60;0.60;;;;;;;;;;6282244;22;20457;-90
2023/12/21 02:53:05;;;;;;;1.47;0.70;;;;;;;;;;6280831;22;20421;-90
2023/12/21 02:55:31;;;;;;;0.60;0.60;;;;;;;;;;6282647;22;20376;-89
2023/12/21 02:57:57;;;;;;;0.60;0.60;;;;;;;;;;6280351;22;20381;-91
2023/12/21 03:00:23;;;;;;;1.63;0.63;;;;;;;;;;6281428;22;20449;-90
2023/12/21 03:02:49;;;;;;;0.83;0.83;;;;;;;;;;6306084;22;20420;-88
2023/12/21 03:05:17;;;;;;;0.60;0.50;;;;;;;;;;6283124;22;20414;-90
2023/12/21 03:07:43;;;;;;;0.60;0.50;;;;;;;;;;6279913;22;20380;-90
2023/12/21 03:10:09;;;;;;;0.90;0.70;;;;;;;;;;6287098;22;20373;-88
2023/12/21 03:12:35;;;;;;;0.97;0.70;;;;;;;;;;6280499;22;20397;-91
2023/12/21 03:15:02;;;;;;;0.80;0.60;;;;;;;;;;6284578;22;20759;-90
2023/12/21 03:17:28;;;;;;;0.60;0.60;;;;;;;;;;6278878;22;20379;-90
2023/12/21 03:19:54;;;;;;;0.60;0.60;;;;;;;;;;6281050;22;20481;-90
2023/12/21 03:22:20;;;;;;;0.60;0.50;;;;;;;;;;6278409;22;20384;-90
2023/12/21 03:24:46;;;;;;;0.70;0.50;;;;;;;;;;6307554;22;20365;-90
2023/12/21 03:27:13;;;;;;;2.07;0.90;;;;;;;;;;6279198;22;20431;-91
2023/12/21 03:29:39;;;;;;;0.70;0.50;;;;;;;;;;6281554;22;20464;-90
2023/12/21 03:32:05;;;;;;;0.60;0.60;;;;;;;;;;6278398;22;20860;-90
2023/12/21 03:34:31;;;;;;;1.10;0.57;;;;;;;;;;6280824;22;20403;-90
2023/12/21 03:36:57;;;;;;;0.70;0.60;;;;;;;;;;6305590;22;20361;-90
2023/12/21 03:39:23;;;;;;;0.60;0.50;;;;;;;;;;6284012;22;20887;-91
2023/12/21 03:41:49;;;;;;;0.70;0.60;;;;;;;;;;6280120;22;20445;-91
2023/12/21 03:44:15;;;;;;;0.60;0.50;;;;;;;;;;6277820;22;20488;-90
2023/12/21 03:46:41;;;;;;;0.70;0.70;;;;;;;;;;6283229;22;20387;-91
2023/12/21 03:49:07;;;;;;;0.60;0.60;;;;;;;;;;6279940;22;20385;-90
2023/12/21 03:51:33;;;;;;;0.60;0.50;;;;;;;;;;6282144;22;20395;-91
2023/12/21 03:53:59;;;;;;;0.60;0.60;;;;;;;;;;6277370;22;20388;-92
2023/12/21 03:56:25;;;;;;;0.70;0.70;;;;;;;;;;6278057;22;20901;-91
2023/12/21 03:58:51;;;;;;;0.60;0.50;;;;;;;;;;6278672;22;20428;-90
2023/12/21 04:01:29;;;;;;;1.00;0.83;;;;;;;;;;6279179;22;20360;-89
2023/12/21 04:03:55;;;;;;;0.80;0.63;;;;;;;;;;6278581;22;20352;-90
2023/12/21 04:06:21;;;;;;;0.70;0.67;;;;;;;;;;6287483;22;20406;-90
2023/12/21 04:08:47;;;;;;;0.60;0.50;;;;;;;;;;6283486;22;20765;-89
2023/12/21 04:11:17;;;;;;;0.67;0.67;;;;;;;;;;6289723;22;20373;-90
2023/12/21 04:13:43;;;;;;;0.77;0.77;;;;;;;;;;6285670;22;20866;-90
2023/12/21 04:16:09;;;;;;;0.60;0.50;;;;;;;;;;6286362;22;20472;-91
2023/12/21 04:18:35;;;;;;;0.60;0.50;;;;;;;;;;6314177;22;20411;-90
2023/12/21 04:21:01;;;;;;;0.60;0.43;;;;;;;;;;6288133;22;20384;-90
2023/12/21 04:23:27;;;;;;;0.60;0.53;;;;;;;;;;6314399;22;20371;-89
2023/12/21 04:25:53;;;;;;;0.70;0.50;;;;;;;;;;6312255;22;20443;-90
2023/12/21 04:28:19;;;;;;;0.70;0.50;;;;;;;;;;6285501;22;20903;-91
2023/12/21 04:30:45;;;;;;;0.60;0.50;;;;;;;;;;6312850;22;20359;-91
2023/12/21 04:33:16;;;;;;;0.60;0.50;;;;;;;;;;6288463;22;20373;-90
2023/12/21 04:35:45;;;;;;;2.10;0.93;;;;;;;;;;6287667;22;20706;-91
2023/12/21 04:38:11;;;;;;;0.67;0.57;;;;;;;;;;6289879;22;20368;-91
2023/12/21 04:40:37;;;;;;;0.60;0.60;;;;;;;;;;6287202;22;20376;-91
2023/12/21 04:43:03;;;;;;;0.60;0.40;;;;;;;;;;6289241;22;20380;-88
2023/12/21 04:45:29;;;;;;;0.80;0.60;;;;;;;;;;6284675;22;20380;-90
2023/12/21 04:47:55;;;;;;;0.60;0.60;;;;;;;;;;6289732;22;20416;-90
2023/12/21 04:50:21;;;;;;;0.60;0.50;;;;;;;;;;6285506;22;20416;-90
2023/12/21 04:52:47;;;;;;;0.60;0.50;;;;;;;;;;6287193;22;20376;-91
2023/12/21 04:55:13;;;;;;;0.60;0.50;;;;;;;;;;6314197;22;20384;-91
2023/12/21 04:57:39;;;;;;;0.83;0.70;;;;;;;;;;6290725;22;20375;-91
2023/12/21 05:00:07;;;;;;;0.67;0.60;;;;;;;;;;6286046;22;20423;-91
2023/12/21 05:02:33;;;;;;;0.70;0.70;;;;;;;;;;6286849;22;20449;-89
2023/12/21 05:04:59;;;;;;;0.60;0.50;;;;;;;;;;6285972;22;20373;-90
2023/12/21 05:07:25;;;;;;;0.60;0.50;;;;;;;;;;6289541;22;20408;-91
2023/12/21 05:09:51;;;;;;;1.07;0.60;;;;;;;;;;6285818;22;20687;-91
2023/12/21 05:12:17;;;;;;;0.60;0.50;;;;;;;;;;6288327;22;20390;-91
2023/12/21 05:14:43;;;;;;;0.70;0.60;;;;;;;;;;6287099;22;20389;-89
2023/12/21 05:17:09;;;;;;;0.97;0.90;;;;;;;;;;6316967;22;20353;-91
2023/12/21 05:19:37;;;;;;;0.70;0.70;;;;;;;;;;6286457;22;20457;-91
2023/12/21 05:22:03;;;;;;;0.63;0.47;;;;;;;;;;6286383;22;20505;-89
2023/12/21 05:24:29;;;;;;;0.80;0.63;;;;;;;;;;6285288;22;20392;-91
2023/12/21 05:26:58;;;;;;;0.60;0.60;;;;;;;;;;6291448;22;20376;-88
2023/12/21 05:29:24;;;;;;;0.80;0.50;;;;;;;;;;6290433;22;21243;-90
2023/12/21 05:31:50;;;;;;;0.80;0.60;;;;;;;;;;6311277;22;20361;-89
2023/12/21 05:34:16;;;;;;;0.70;0.57;;;;;;;;;;6311723;22;20488;-90
2023/12/21 05:36:42;;;;;;;0.60;0.50;;;;;;;;;;6311637;22;20368;-89
2023/12/21 05:39:09;;;;;;;0.87;0.70;;;;;;;;;;6314476;22;20475;-89
2023/12/21 05:41:35;;;;;;;0.70;0.70;;;;;;;;;;6286897;22;20617;-90
2023/12/21 05:44:01;;;;;;;0.60;0.60;;;;;;;;;;6287223;22;20451;-89
2023/12/21 05:46:27;;;;;;;0.60;0.57;;;;;;;;;;6288525;22;20786;-90
2023/12/21 05:48:53;;;;;;;2.50;0.77;;;;;;;;;;6293518;22;20373;-90
2023/12/21 05:51:19;;;;;;;0.60;0.60;;;;;;;;;;6310189;22;20379;-88
2023/12/21 05:53:45;;;;;;;0.60;0.60;;;;;;;;;;6310148;22;20372;-91
2023/12/21 05:56:11;;;;;;;0.90;0.50;;;;;;;;;;6284718;22;20716;-91
2023/12/21 05:58:38;;;;;;;0.60;0.60;;;;;;;;;;6312426;22;20498;-91
2023/12/21 06:01:04;;;;;;;1.00;0.70;;;;;;;;;;6285386;22;20463;-91
2023/12/21 06:03:30;;;;;;;0.70;0.70;;;;;;;;;;6311977;22;20943;-91
2023/12/21 06:05:56;;;;;;;1.23;0.60;;;;;;;;;;6285609;22;20879;-91
2023/12/21 06:08:22;;;;;;;0.60;0.53;;;;;;;;;;6286067;22;20503;-91
2023/12/21 06:10:48;;;;;;;1.07;0.97;;;;;;;;;;6286349;22;20430;-90
2023/12/21 06:13:14;;;;;;;0.87;0.80;;;;;;;;;;6310731;22;20373;-90
2023/12/21 06:15:40;;;;;;;9.57;1.07;;;;;;;;;;6285263;22;20392;-90
2023/12/21 06:18:06;;;;;;;0.63;0.53;;;;;;;;;;6289084;22;20501;-90
2023/12/21 06:20:35;;;;;;;1.60;0.80;;;;;;;;;;6284838;22;20403;-90
2023/12/21 06:23:01;;;;;;;0.83;0.83;;;;;;;;;;6291262;22;20361;-90
2023/12/21 06:25:27;;;;;;;2.93;0.60;;;;;;;;;;6285305;22;20385;-90
2023/12/21 06:27:53;;;;;;;0.60;0.50;;;;;;;;;;6286890;22;20376;-90
2023/12/21 06:30:19;;;;;;;0.60;0.50;;;;;;;;;;6283616;22;20412;-90
2023/12/21 06:32:45;;;;;;;0.60;0.50;;;;;;;;;;6313561;22;20455;-90
2023/12/21 06:35:11;;;;;;;1.90;0.77;;;;;;;;;;6285902;22;20395;-91
2023/12/21 06:37:37;;;;;;;2.00;1.90;;;;;;;;;;6314350;22;20403;-90
2023/12/21 06:40:04;;;;;;;0.87;0.83;;;;;;;;;;6285486;22;20477;-91
2023/12/21 06:42:31;;;;;;;0.77;0.50;;;;;;;;;;6285526;22;20972;-91
2023/12/21 06:44:57;;;;;;;0.70;0.70;;;;;;;;;;6282513;22;20768;-91
2023/12/21 06:47:23;;;;;;;0.83;0.83;;;;;;;;;;6286089;22;20381;-91
2023/12/21 06:49:49;;;;;;;3.70;0.70;;;;;;;;;;6287578;22;20715;-91
2023/12/21 06:52:15;;;;;;;0.70;0.70;;;;;;;;;;6288159;22;20381;-92
2023/12/21 06:54:41;;;;;;;0.97;0.70;;;;;;;;;;6286522;22;21068;-91
2023/12/21 06:57:07;;;;;;;0.60;0.50;;;;;;;;;;6290964;22;20858;-90
2023/12/21 06:59:33;;;;;;;0.70;0.60;;;;;;;;;;6287592;22;20420;-92
2023/12/21 07:01:59;;;;;;;0.80;0.73;;;;;;;;;;6288412;22;20361;-92
2023/12/21 07:04:25;;;;;;;0.93;0.83;;;;;;;;;;6288529;22;20372;-93
2023/12/21 07:06:52;;;;;;;1.00;0.90;;;;;;;;;;6297683;22;20403;-94
2023/12/21 07:09:19;;;;;;;0.60;0.50;;;;;;;;;;6295514;22;20394;-92
2023/12/21 07:11:45;;;;;;;0.60;0.50;;;;;;;;;;6316492;22;20369;-91
2023/12/21 07:14:11;;;;;;;0.60;0.60;;;;;;;;;;6288943;22;20371;-93
2023/12/21 07:16:37;;;;;;;0.60;0.50;;;;;;;;;;6288808;22;20388;-92
2023/12/21 07:19:06;;;;;;;0.97;0.63;;;;;;;;;;6289546;22;20754;-92
2023/12/21 07:21:31;;;;;;;0.60;0.50;;;;;;;;;;6254903;22;20453;-91
2023/12/21 07:23:57;;;;;;;0.60;0.50;;;;;;;;;;6230927;22;20369;-92
2023/12/21 07:26:24;;;;;;;0.70;0.60;;;;;;;;;;6231202;22;20417;-93
2023/12/21 07:28:50;;;;;;;0.90;0.60;;;;;;;;;;6230713;22;20405;-91
2023/12/21 07:31:17;;;;;;;0.60;0.50;;;;;;;;;;6234647;22;20389;-92
2023/12/21 07:33:46;;;;;;;1.83;0.60;;;;;;;;;;6231617;22;20397;-92
2023/12/21 07:36:15;;;;;;;1.07;0.60;;;;;;;;;;6234518;22;20402;-93
2023/12/21 07:38:41;;;;;;;0.80;0.80;;;;;;;;;;6231733;22;20440;-91
2023/12/21 07:41:10;;;;;;;0.90;0.77;;;;;;;;;;6233570;22;20516;-92
2023/12/21 07:43:38;;;;;;;1.50;0.77;;;;;;;;;;6256762;22;20388;-92
2023/12/21 07:46:04;;;;;;;0.90;0.50;;;;;;;;;;6235134;22;20357;-92
2023/12/21 07:48:32;;;;;;;0.60;0.60;;;;;;;;;;6232432;22;20381;-92
2023/12/21 07:51:00;;;;;;;0.80;0.67;;;;;;;;;;6233898;22;20783;-92
2023/12/21 19:57:51;;;;;;;1.00;0.70;;;;;;;;;;6322722;22;20507;-93
2023/12/21 20:00:17;;;;;;;1.77;1.00;;;;;;;;;;6292122;22;20425;-92
2023/12/21 20:02:43;;;;;;;3.80;0.90;;;;;;;;;;6290382;22;21292;-91
2023/12/21 20:05:09;;;;;;;1.00;0.90;;;;;;;;;;6290543;22;20370;-92
2023/12/21 20:07:35;;;;;;;1.70;0.77;;;;;;;;;;6292718;22;20376;-93
2023/12/21 20:10:02;;;;;;;0.93;0.90;;;;;;;;;;6290540;22;20463;-91
2023/12/21 20:12:28;;;;;;;1.57;0.73;;;;;;;;;;6289814;22;20775;-92
2023/12/21 20:14:54;;;;;;;1.20;0.90;;;;;;;;;;6292338;22;20936;-91
2023/12/21 20:17:20;;;;;;;2.80;1.07;;;;;;;;;;6289873;22;20395;-93
2023/12/21 20:19:46;;;;;;;1.30;1.20;;;;;;;;;;6294039;22;20453;-91
2023/12/21 20:22:12;;;;;;;4.57;3.00;;;;;;;;;;6288526;22;20375;-90
2023/12/21 20:24:38;;;;;;;6.10;1.77;;;;;;;;;;6289668;22;20394;-90
2023/12/21 20:27:04;;;;;;;2.80;1.17;;;;;;;;;;6289957;22;20403;-91
2023/12/21 20:29:34;;;;;;;1.63;1.10;;;;;;;;;;6292005;22;20402;-91
2023/12/21 20:32:04;;;;;;;3.00;1.00;;;;;;;;;;6290830;22;20402;-91
2023/12/21 20:34:32;;;;;;;4.50;1.57;;;;;;;;;;6292659;22;20861;-92
2023/12/21 20:37:00;;;;;;;1.97;1.27;;;;;;;;;;6292681;22;20384;-92
2023/12/21 20:39:27;;;;;;;1.60;1.33;;;;;;;;;;6319289;22;20423;-90
2023/12/21 20:42:11;;;;;;;1.00;0.90;;;;;;;;;;6291658;22;20379;-90
2023/12/21 20:44:42;;;;;;;2.03;1.00;;;;;;;;;;6285128;22;20388;-91
2023/12/21 20:47:08;;;;;;;4.10;1.00;;;;;;;;;;6286508;22;20415;-92
2023/12/21 20:49:34;;;;;;;2.43;1.30;;;;;;;;;;6280838;22;20392;-90
2023/12/21 20:52:04;;;;;;;1.87;1.00;;;;;;;;;;6282925;22;20423;-90
2023/12/21 20:54:34;;;;;;;1.53;0.90;;;;;;;;;;6256181;22;20435;-88
2023/12/21 20:57:01;;;;;;;3.73;1.77;;;;;;;;;;6252535;22;20377;-91
2023/12/21 20:59:27;;;;;;;1.53;0.90;;;;;;;;;;6250432;22;20431;-90
2023/12/21 21:01:53;;;;;;;2.20;0.90;;;;;;;;;;6251533;22;20412;-89
2023/12/21 21:04:22;;;;;;;3.53;1.37;;;;;;;;;;6278696;22;20454;-88
2023/12/21 21:06:48;;;;;;;2.73;0.90;;;;;;;;;;6277413;22;20736;-89
2023/12/21 21:09:17;;;;;;;4.23;1.00;;;;;;;;;;6271457;22;20825;-90
2023/12/21 21:11:44;;;;;;;3.30;1.37;;;;;;;;;;6282703;22;20384;-89
2023/12/21 21:14:10;;;;;;;1.10;0.93;;;;;;;;;;6285732;22;20384;-88
2023/12/21 21:16:36;;;;;;;2.30;1.30;;;;;;;;;;6283973;22;20384;-88
2023/12/21 21:19:02;;;;;;;2.93;0.90;;;;;;;;;;6286274;22;20447;-90
2023/12/21 21:21:29;;;;;;;1.00;0.90;;;;;;;;;;6282995;22;20380;-90
2023/12/21 21:23:55;;;;;;;0.80;0.80;;;;;;;;;;6288158;22;20380;-89
2023/12/21 21:26:21;;;;;;;1.20;0.80;;;;;;;;;;6288503;22;20418;-89
2023/12/21 21:28:47;;;;;;;1.20;1.10;;;;;;;;;;6288832;22;20368;-89
2023/12/21 21:31:16;;;;;;;1.67;0.80;;;;;;;;;;6288304;22;20368;-88
2023/12/21 21:33:43;;;;;;;2.83;0.90;;;;;;;;;;6286931;22;20952;-89
2023/12/21 21:36:09;;;;;;;1.57;0.80;;;;;;;;;;6286737;22;20371;-90
2023/12/21 21:38:43;;;;;;;1.83;0.93;;;;;;;;;;6288039;22;20380;-89
2023/12/21 21:41:18;;;;;;;1.47;0.77;;;;;;;;;;6290603;22;20372;-88
2023/12/21 21:43:45;;;;;;;2.50;1.07;;;;;;;;;;6288328;22;20439;-90
2023/12/21 21:46:11;;;;;;;3.57;2.20;;;;;;;;;;6288924;22;20380;-89
2023/12/21 21:48:49;;;;;;;1.20;1.10;;;;;;;;;;6290120;22;21201;-90
2023/12/21 21:51:33;;;;;;;1.23;0.83;;;;;;;;;;6292468;22;20371;-91
2023/12/21 21:54:03;;;;;;;1.60;1.03;;;;;;;;;;6297467;22;20380;-89
2023/12/21 21:56:32;;;;;;;4.13;1.03;;;;;;;;;;6289153;22;20462;-89
2023/12/21 21:59:06;;;;;;;2.97;1.60;;;;;;;;;;6288100;22;20427;-89
2023/12/21 22:01:35;;;;;;;2.73;1.43;;;;;;;;;;6290656;22;20383;-90
2023/12/21 22:04:04;;;;;;;1.23;0.90;;;;;;;;;;6289583;22;20811;-90
2023/12/21 22:06:32;;;;;;;2.10;1.23;;;;;;;;;;6289066;22;20376;-89
2023/12/21 22:09:06;;;;;;;1.20;1.10;;;;;;;;;;6287204;22;20380;-90
2023/12/21 22:11:34;;;;;;;7.23;1.97;;;;;;;;;;6288248;22;20379;-90
2023/12/21 22:14:03;;;;;;;5.10;3.00;;;;;;;;;;6288440;22;20387;-90
2023/12/21 22:16:30;;;;;;;7.57;1.57;;;;;;;;;;6288562;22;20876;-90
2023/12/21 22:18:57;;;;;;;3.00;2.23;;;;;;;;;;6313049;22;20472;-89
2023/12/21 22:21:23;;;;;;;4.97;2.47;;;;;;;;;;6283267;22;20384;-89
2023/12/21 22:23:50;;;;;;;1.00;1.00;;;;;;;;;;6281677;22;20420;-90
2023/12/21 22:26:19;;;;;;;9.83;7.40;;;;;;;;;;6289497;22;21138;-90
2023/12/21 22:28:46;;;;;;;7.93;6.03;;;;;;;;;;6205825;22;20374;-90
2023/12/21 22:31:12;;;;;;;4.50;3.07;;;;;;;;;;6259636;22;20385;-92
2023/12/21 22:33:38;;;;;;;6.20;5.10;;;;;;;;;;6256312;22;20409;-90
2023/12/21 22:36:05;;;;;;;6.70;4.07;;;;;;;;;;6256305;22;20388;-91
2023/12/21 22:38:34;;;;;;;2.93;1.80;;;;;;;;;;6259727;22;20899;-93
2023/12/21 22:41:00;;;;;;;2.73;1.20;;;;;;;;;;6260281;22;20483;-93
2023/12/21 22:43:28;;;;;;;8.83;6.60;;;;;;;;;;6259578;22;20380;-93
2023/12/21 22:45:55;;;;;;;1.47;1.10;;;;;;;;;;6261223;22;20364;-91
2023/12/21 22:48:21;;;;;;;3.00;2.70;;;;;;;;;;6259540;22;20376;-93
2023/12/21 22:50:49;;;;;;;1.37;1.00;;;;;;;;;;6260749;22;20380;-90
2023/12/21 22:53:16;;;;;;;3.60;1.10;;;;;;;;;;6222597;23;20430;-91
2023/12/21 22:55:50;;;;;;;5.60;1.70;;;;;;;;;;6227065;23;20464;-93
2023/12/21 22:58:16;;;;;;;2.30;1.27;;;;;;;;;;6225240;23;20408;-92
2023/12/21 23:00:42;;;;;;;3.53;1.87;;;;;;;;;;6253527;23;20406;-92
2023/12/21 23:03:14;;;;;;;5.03;1.77;;;;;;;;;;6221075;23;20394;-93
2023/12/21 23:05:45;;;;;;;3.30;2.50;;;;;;;;;;6194414;23;20489;-91
2023/12/21 23:08:14;;;;;;;1.67;1.57;;;;;;;;;;6192745;23;20391;-90
2023/12/21 23:10:42;;;;;;;11.50;5.57;;;;;;;;;;6193342;23;20400;-90
2023/12/21 23:13:12;;;;;;;8.30;2.07;;;;;;;;;;6193078;23;20425;-91
2023/12/21 23:15:41;;;;;;;6.30;3.80;;;;;;;;;;6195701;23;20888;-90
2023/12/21 23:18:10;;;;;;;3.33;1.23;;;;;;;;;;6193208;23;20375;-92
2023/12/21 23:20:39;;;;;;;4.43;1.23;;;;;;;;;;6194736;23;20494;-91
2023/12/21 23:23:05;;;;;;;3.90;1.10;;;;;;;;;;6195065;22;20386;-92
2023/12/21 23:25:32;;;;;;;1.13;0.90;;;;;;;;;;6255227;22;20426;-90
2023/12/21 23:27:58;;;;;;;4.90;2.47;;;;;;;;;;6256743;22;20416;-89
2023/12/21 23:30:24;;;;;;;1.10;1.00;;;;;;;;;;6251973;22;20462;-91
2023/12/21 23:32:50;;;;;;;5.97;1.30;;;;;;;;;;6253475;22;20381;-91
2023/12/21 23:35:16;;;;;;;4.87;1.60;;;;;;;;;;6311092;22;20383;-90
2023/12/21 23:37:45;;;;;;;1.23;0.67;;;;;;;;;;6286093;22;20388;-90
2023/12/21 23:40:11;;;;;;;1.70;1.60;;;;;;;;;;6285435;22;20723;-89
2023/12/21 23:42:39;;;;;;;0.80;0.80;;;;;;;;;;6287187;22;20387;-89
2023/12/21 23:45:05;;;;;;;3.90;1.93;;;;;;;;;;6285888;22;20802;-90
2023/12/21 23:47:31;;;;;;;3.67;1.13;;;;;;;;;;6288765;22;20395;-91
2023/12/21 23:49:57;;;;;;;4.30;1.90;;;;;;;;;;6286733;22;20403;-91
2023/12/21 23:52:24;;;;;;;3.90;0.90;;;;;;;;;;6289741;22;20382;-91
2023/12/21 23:54:51;;;;;;;1.27;0.80;;;;;;;;;;6286726;22;20398;-90
2023/12/21 23:57:18;;;;;;;1.43;1.33;;;;;;;;;;6289178;22;20419;-90
2023/12/21 23:59:44;;;;;;;2.30;1.40;;;;;;;;;;6286926;22;20815;-91
